Time;durP1;ratioP1;P1;durP2;ratioP2;P2;SDS_P1;SDS_P2;PMS_P1;PMS_P2;Temp;Humidity;BMP_temperature;BMP_pressure;BME280_temperature;BME280_humidity;BME280_pressure;Samples;Min_cycle;Max_cycle;Signal;HPM_P1;HPM_P2
2023/07/31 00:01:58;;;;;;;39.92;8.57;;;;;;;17.90;100.00;100970.91;5050003;28;20025;-75
2023/07/31 00:04:24;;;;;;;36.72;9.85;;;;;;;17.83;100.00;100960.75;5050267;28;20037;-75
2023/07/31 00:06:49;;;;;;;35.50;8.77;;;;;;;17.77;100.00;100969.97;5049992;28;20380;-71
2023/07/31 00:09:14;;;;;;;44.17;8.55;;;;;;;17.67;100.00;100957.22;5050047;28;20037;-75
2023/07/31 00:11:40;;;;;;;33.53;8.35;;;;;;;17.67;100.00;100972.38;5049939;28;20021;-75
2023/07/31 00:14:05;;;;;;;38.58;8.90;;;;;;;17.64;100.00;100973.41;5049812;28;20430;-70
2023/07/31 00:16:31;;;;;;;43.67;9.05;;;;;;;17.65;100.00;100967.13;5048655;28;20028;-76
2023/07/31 00:18:56;;;;;;;38.65;8.50;;;;;;;17.69;100.00;100970.44;5050960;28;20112;-76
2023/07/31 00:21:21;;;;;;;33.22;7.70;;;;;;;17.62;100.00;100966.47;5051180;28;20029;-73
2023/07/31 00:23:47;;;;;;;36.45;8.60;;;;;;;17.64;100.00;100962.75;5049227;28;20112;-68
2023/07/31 00:26:12;;;;;;;38.08;8.82;;;;;;;17.53;100.00;100957.22;5032337;28;20470;-74
2023/07/31 00:28:37;;;;;;;41.38;8.73;;;;;;;17.57;100.00;100958.75;5049863;28;20125;-72
2023/07/31 00:31:03;;;;;;;42.15;9.50;;;;;;;17.61;100.00;100949.59;5050520;28;20029;-80
2023/07/31 00:33:31;;;;;;;40.65;8.65;;;;;;;17.63;100.00;100961.03;5049563;28;20052;-71
2023/07/31 00:35:56;;;;;;;40.58;8.48;;;;;;;17.53;100.00;100955.44;5049395;28;20029;-74
2023/07/31 00:38:21;;;;;;;35.08;8.55;;;;;;;17.59;100.00;100956.84;5050270;28;20128;-73
2023/07/31 00:40:47;;;;;;;35.65;8.45;;;;;;;17.60;100.00;100958.56;5050452;28;20032;-74
2023/07/31 00:43:12;;;;;;;40.83;8.75;;;;;;;17.60;100.00;100958.56;5050173;28;20477;-80
2023/07/31 00:45:38;;;;;;;38.22;9.48;;;;;;;17.51;100.00;100969.78;5050660;28;20076;-72
2023/07/31 00:48:06;;;;;;;35.15;8.75;;;;;;;17.53;100.00;100960.75;5049547;28;20025;-72
2023/07/31 00:50:31;;;;;;;43.33;9.23;;;;;;;17.54;100.00;100958.94;5050595;28;20463;-76
2023/07/31 00:52:56;;;;;;;39.72;10.20;;;;;;;17.49;100.00;100956.53;5048688;28;20029;-80
2023/07/31 00:55:22;;;;;;;39.58;10.63;;;;;;;17.51;100.00;100959.13;5050018;28;20033;-69
2023/07/31 00:57:48;;;;;;;34.45;9.02;;;;;;;17.56;100.00;100959.72;5051034;28;20529;-73
2023/07/31 01:00:13;;;;;;;53.72;11.13;;;;;;;17.57;100.00;100949.91;5049065;28;20100;-77
2023/07/31 01:02:38;;;;;;;46.55;9.77;;;;;;;17.51;100.00;100956.44;5049154;28;20041;-64
2023/07/31 01:05:04;;;;;;;42.50;9.93;;;;;;;17.50;100.00;100949.41;5048580;28;20037;-71
2023/07/31 01:10:22;;;;;;;37.50;9.15;;;;;;;17.43;100.00;100947.13;5057569;22;20040;-78
2023/07/31 01:12:48;;;;;;;35.45;9.55;;;;;;;17.45;100.00;100938.22;5032016;28;20029;-74
2023/07/31 01:15:14;;;;;;;37.45;8.68;;;;;;;17.48;100.00;100961.97;5029081;28;20021;-74
2023/07/31 01:17:41;;;;;;;28.23;8.32;;;;;;;17.40;100.00;100952.66;5028088;28;20026;-70
2023/07/31 01:20:17;;;;;;;27.60;6.75;;;;;;;17.45;100.00;100957.69;5030856;28;20037;-75
2023/07/31 01:22:52;;;;;;;16.10;5.50;;;;;;;17.39;100.00;100942.94;5048888;28;20134;-72
2023/07/31 01:25:30;;;;;;;19.15;5.93;;;;;;;17.32;100.00;100952.28;5050020;28;20103;-70
2023/07/31 01:28:07;;;;;;;26.00;7.30;;;;;;;17.36;100.00;100943.13;5048177;28;20040;-76
2023/07/31 01:30:35;;;;;;;25.77;6.53;;;;;;;17.29;100.00;100940.00;5049706;28;20130;-78
2023/07/31 01:33:06;;;;;;;23.60;6.63;;;;;;;17.35;100.00;100936.09;5049149;28;20087;-77
2023/07/31 01:35:32;;;;;;;25.38;6.78;;;;;;;17.37;100.00;100936.84;5049511;28;20027;-73
2023/07/31 01:37:57;;;;;;;34.80;8.27;;;;;;;17.34;100.00;100933.53;5048683;28;20025;-75
2023/07/31 01:40:22;;;;;;;35.08;8.25;;;;;;;17.32;100.00;100938.97;5048513;28;20028;-73
2023/07/31 01:42:48;;;;;;;34.13;8.13;;;;;;;17.45;100.00;100927.56;5049306;28;20041;-77
2023/07/31 01:45:13;;;;;;;47.35;8.68;;;;;;;17.42;100.00;100918.78;5049404;28;20025;-66
2023/07/31 01:47:38;;;;;;;30.33;9.10;;;;;;;17.48;100.00;100922.88;5048856;28;20074;-70
2023/07/31 01:50:04;;;;;;;35.80;9.05;;;;;;;17.49;100.00;100916.59;5049355;28;20034;-79
2023/07/31 01:52:30;;;;;;;40.42;8.45;;;;;;;17.55;100.00;100913.56;5048407;28;20021;-67
2023/07/31 01:54:55;;;;;;;38.72;9.27;;;;;;;17.59;100.00;100906.25;5049376;28;20104;-72
2023/07/31 01:57:20;;;;;;;34.85;8.75;;;;;;;17.63;100.00;100899.75;5048564;28;20021;-76
2023/07/31 01:59:46;;;;;;;34.40;8.10;;;;;;;17.70;100.00;100900.22;5048386;28;20025;-81
2023/07/31 02:02:11;;;;;;;39.33;8.63;;;;;;;17.71;100.00;100893.09;5048505;28;20773;-81
2023/07/31 02:04:38;;;;;;;41.65;8.57;;;;;;;17.65;100.00;100891.66;5049030;28;20155;-74
2023/07/31 02:07:03;;;;;;;30.40;7.97;;;;;;;17.68;100.00;100886.16;5049252;28;20027;-78
2023/07/31 02:09:29;;;;;;;29.08;7.35;;;;;;;17.67;100.00;100879.13;5047548;28;20511;-75
2023/07/31 02:11:54;;;;;;;30.05;8.20;;;;;;;17.70;100.00;100883.38;5048012;28;20029;-72
2023/07/31 02:14:19;;;;;;;27.15;8.13;;;;;;;17.61;100.00;100877.66;5048188;28;20035;-73
2023/07/31 02:16:45;;;;;;;28.77;7.57;;;;;;;17.70;100.00;100867.41;5048013;28;20512;-78
2023/07/31 02:19:10;;;;;;;35.75;8.52;;;;;;;17.68;100.00;100870.16;5048325;28;20451;-76
2023/07/31 02:21:35;;;;;;;30.67;8.70;;;;;;;17.69;100.00;100877.19;5047971;28;20025;-79
2023/07/31 02:24:01;;;;;;;38.00;8.90;;;;;;;17.64;100.00;100866.81;5047960;28;20100;-72
2023/07/31 02:26:26;;;;;;;38.95;8.95;;;;;;;17.65;100.00;100883.66;5047955;28;20045;-66
2023/07/31 02:28:51;;;;;;;34.97;8.32;;;;;;;17.77;100.00;100879.38;5047762;28;20037;-76
2023/07/31 02:31:17;;;;;;;44.40;8.75;;;;;;;17.79;100.00;100872.16;5031071;28;20053;-77
2023/07/31 02:33:42;;;;;;;37.60;8.68;;;;;;;17.78;100.00;100870.41;5047578;28;20024;-74
2023/07/31 02:36:07;;;;;;;35.92;8.90;;;;;;;17.79;100.00;100882.81;5048733;28;20021;-74
2023/07/31 02:38:33;;;;;;;39.40;8.45;;;;;;;17.68;100.00;100871.03;5047408;28;20027;-71
2023/07/31 02:40:58;;;;;;;34.90;8.30;;;;;;;17.75;100.00;100876.81;5047874;28;20025;-80
2023/07/31 02:43:23;;;;;;;28.02;7.68;;;;;;;17.81;100.00;100862.22;5048117;28;20522;-74
2023/07/31 02:45:52;;;;;;;28.10;8.75;;;;;;;17.86;100.00;100862.78;5050543;28;20025;-80
2023/07/31 02:48:18;;;;;;;33.15;8.27;;;;;;;17.72;100.00;100868.13;5048447;28;20029;-72
2023/07/31 02:50:43;;;;;;;25.63;6.90;;;;;;;17.76;100.00;100859.84;5048672;28;20033;-76
2023/07/31 02:53:08;;;;;;;35.13;7.50;;;;;;;17.77;100.00;100853.59;5048666;28;20049;-72
2023/07/31 02:55:34;;;;;;;27.38;6.97;;;;;;;17.75;100.00;100859.94;5048823;28;20120;-72
2023/07/31 02:57:59;;;;;;;28.95;7.75;;;;;;;17.78;100.00;100849.09;5048400;28;20469;-75
2023/07/31 03:00:24;;;;;;;30.58;7.25;;;;;;;17.85;100.00;100847.75;5048248;28;20029;-71
2023/07/31 03:02:50;;;;;;;32.97;7.63;;;;;;;17.78;100.00;100839.31;5048666;28;20436;-74
2023/07/31 03:05:15;;;;;;;31.90;7.65;;;;;;;17.75;100.00;100833.31;5046560;28;20033;-71
2023/07/31 03:07:40;;;;;;;26.73;7.60;;;;;;;17.75;100.00;100839.50;5047291;28;20032;-76
2023/07/31 03:10:06;;;;;;;25.13;7.75;;;;;;;17.84;100.00;100840.72;5048430;28;20067;-77
2023/07/31 03:12:32;;;;;;;25.02;7.20;;;;;;;17.70;100.00;100836.25;5046314;28;20516;-70
2023/07/31 03:14:57;;;;;;;31.08;7.75;;;;;;;17.75;100.00;100846.63;5046775;28;20029;-72
2023/07/31 03:17:23;;;;;;;29.10;7.47;;;;;;;17.85;100.00;100838.91;5048205;28;20040;-69
2023/07/31 03:19:48;;;;;;;38.67;8.07;;;;;;;17.77;100.00;100842.06;5047640;28;20025;-72
2023/07/31 03:22:13;;;;;;;33.88;8.75;;;;;;;17.76;100.00;100835.88;5046083;28;20611;-77
2023/07/31 03:24:39;;;;;;;25.40;6.60;;;;;;;17.81;100.00;100823.13;5047450;28;20024;-76
2023/07/31 03:27:04;;;;;;;30.80;7.40;;;;;;;17.81;100.00;100822.25;5044330;28;20061;-73
2023/07/31 03:29:30;;;;;;;24.85;6.20;;;;;;;17.75;100.00;100833.31;5044562;28;20031;-70
2023/07/31 03:31:55;;;;;;;29.50;7.05;;;;;;;17.91;100.00;100818.03;5045780;28;20100;-76
2023/07/31 03:34:21;;;;;;;22.45;7.07;;;;;;;17.74;100.00;100836.94;5047866;28;20488;-68
2023/07/31 03:36:46;;;;;;;28.25;7.10;;;;;;;17.73;100.00;100829.91;5047002;28;20633;-68
2023/07/31 03:39:11;;;;;;;26.05;6.60;;;;;;;17.69;100.00;100818.56;5046229;28;20920;-70
2023/07/31 03:41:37;;;;;;;25.42;7.55;;;;;;;17.72;100.00;100828.16;5046820;28;20488;-71
2023/07/31 03:44:02;;;;;;;26.50;6.85;;;;;;;17.70;100.00;100819.44;5046976;28;20437;-75
2023/07/31 03:46:27;;;;;;;28.05;6.78;;;;;;;17.73;100.00;100824.56;5046967;28;20103;-65
2023/07/31 03:48:53;;;;;;;29.48;7.05;;;;;;;17.80;100.00;100810.75;5045283;28;20103;-70
2023/07/31 03:51:18;;;;;;;26.58;6.63;;;;;;;17.77;100.00;100804.75;5046844;28;20033;-74
2023/07/31 03:53:44;;;;;;;30.00;6.47;;;;;;;17.68;100.00;100812.41;5046319;28;20095;-76
2023/07/31 03:56:09;;;;;;;31.83;7.50;;;;;;;17.71;100.00;100807.81;5046054;28;20032;-65
2023/07/31 03:58:35;;;;;;;25.70;6.63;;;;;;;17.62;100.00;100794.16;5046280;28;20075;-69
2023/07/31 04:01:01;;;;;;;29.30;6.50;;;;;;;17.49;100.00;100798.56;5043290;28;20033;-71
2023/07/31 04:03:26;;;;;;;26.58;6.38;;;;;;;17.50;100.00;100794.94;5032173;28;20489;-69
2023/07/31 04:05:54;;;;;;;25.05;6.68;;;;;;;17.46;100.00;100785.44;5045593;28;20025;-69
2023/07/31 04:08:19;;;;;;;34.63;6.72;;;;;;;17.60;100.00;100785.38;5046425;28;20075;-69
2023/07/31 04:10:44;;;;;;;19.95;5.50;;;;;;;17.55;100.00;100795.50;5046171;28;20494;-75
2023/07/31 04:13:10;;;;;;;21.08;6.97;;;;;;;17.55;100.00;100779.53;5046462;28;20510;-76
2023/07/31 04:15:35;;;;;;;22.35;7.32;;;;;;;17.48;100.00;100789.69;5047678;28;20025;-72
2023/07/31 04:18:00;;;;;;;23.25;6.90;;;;;;;17.45;100.00;100786.38;5047081;28;20021;-74
2023/07/31 04:20:26;;;;;;;16.35;6.47;;;;;;;17.43;100.00;100775.84;5047085;28;20031;-77
2023/07/31 04:22:51;;;;;;;22.00;6.25;;;;;;;17.42;100.00;100777.63;5047370;28;20104;-71
2023/07/31 04:25:16;;;;;;;19.17;6.53;;;;;;;17.37;100.00;100771.72;5044878;28;20109;-71
2023/07/31 04:27:42;;;;;;;14.38;5.72;;;;;;;17.41;100.00;100778.59;5026669;28;20066;-80
2023/07/31 04:30:08;;;;;;;20.40;6.88;;;;;;;17.32;100.00;100770.31;5026879;28;20508;-75
2023/07/31 04:32:35;;;;;;;17.95;5.88;;;;;;;17.27;100.00;100767.94;5027360;28;20116;-76
2023/07/31 04:35:00;;;;;;;14.68;5.43;;;;;;;17.27;100.00;100758.16;5034522;28;20025;-81
2023/07/31 04:37:25;;;;;;;15.55;5.82;;;;;;;17.28;100.00;100762.53;5026697;28;20032;-79
2023/07/31 04:39:51;;;;;;;12.05;4.28;;;;;;;17.20;100.00;100753.31;5036692;28;20024;-72
2023/07/31 04:42:16;;;;;;;8.65;3.65;;;;;;;17.08;100.00;100750.50;5025126;28;20092;-76
2023/07/31 04:44:41;;;;;;;10.75;4.18;;;;;;;17.07;100.00;100748.78;5038817;28;20567;-75
2023/07/31 04:47:07;;;;;;;8.52;3.80;;;;;;;17.06;100.00;100747.03;5047100;28;20416;-72
2023/07/31 04:49:32;;;;;;;9.40;3.70;;;;;;;17.03;100.00;100763.19;5049942;28;20428;-72
2023/07/31 04:51:58;;;;;;;6.50;3.20;;;;;;;17.00;100.00;100763.38;5050432;28;20321;-72
2023/07/31 04:54:23;;;;;;;10.65;3.22;;;;;;;16.92;100.00;100748.75;5049920;28;20029;-68
2023/07/31 04:56:48;;;;;;;10.35;3.85;;;;;;;16.89;100.00;100745.44;5048171;28;20141;-77
2023/07/31 04:59:14;;;;;;;9.20;3.35;;;;;;;16.98;100.00;100749.31;5048878;28;20021;-76
2023/07/31 05:01:39;;;;;;;7.50;3.83;;;;;;;16.79;100.00;100742.47;5049942;28;20029;-72
2023/07/31 05:04:04;;;;;;;8.18;3.80;;;;;;;16.84;100.00;100732.41;5050434;28;20051;-77
2023/07/31 05:06:30;;;;;;;8.73;3.70;;;;;;;16.88;100.00;100739.25;5049514;28;20423;-72
2023/07/31 05:08:55;;;;;;;12.40;3.72;;;;;;;16.87;100.00;100734.88;5049345;28;20037;-73
2023/07/31 05:11:20;;;;;;;6.15;3.33;;;;;;;17.01;100.00;100730.50;5049651;28;20104;-73
2023/07/31 05:13:46;;;;;;;10.55;4.43;;;;;;;16.92;100.00;100737.28;5049090;28;20677;-75
2023/07/31 05:16:11;;;;;;;9.85;4.40;;;;;;;16.90;100.00;100731.16;5050062;28;20044;-72
2023/07/31 05:18:37;;;;;;;13.07;4.50;;;;;;;16.83;100.00;100725.41;5049246;28;20032;-72
2023/07/31 05:21:02;;;;;;;8.38;3.95;;;;;;;16.96;100.00;100728.13;5042039;28;20064;-72
2023/07/31 05:23:27;;;;;;;13.15;4.50;;;;;;;17.02;100.00;100726.88;5035361;28;20025;-68
2023/07/31 05:25:53;;;;;;;10.23;4.57;;;;;;;17.00;100.00;100716.34;5034967;28;20088;-72
2023/07/31 05:28:18;;;;;;;8.10;4.30;;;;;;;17.07;100.00;100711.53;5037678;28;20041;-74
2023/07/31 05:30:44;;;;;;;6.57;3.78;;;;;;;17.05;100.00;100697.41;5048081;28;20032;-75
2023/07/31 05:33:09;;;;;;;7.97;3.90;;;;;;;17.04;100.00;100706.38;5049427;28;20437;-70
2023/07/31 05:35:34;;;;;;;12.40;4.18;;;;;;;17.01;100.00;100704.72;5049274;28;20758;-73
2023/07/31 05:38:00;;;;;;;12.68;3.80;;;;;;;17.10;100.00;100695.31;5048719;28;20025;-73
2023/07/31 05:40:25;;;;;;;6.70;3.33;;;;;;;17.08;100.00;100683.94;5047875;28;20428;-70
2023/07/31 05:42:50;;;;;;;9.75;3.80;;;;;;;17.10;100.00;100700.66;5050134;28;20017;-74
2023/07/31 05:45:16;;;;;;;7.03;3.00;;;;;;;17.09;100.00;100682.97;5047687;28;20063;-72
2023/07/31 05:47:41;;;;;;;5.07;2.65;;;;;;;17.18;100.00;100687.72;5046184;28;20033;-70
2023/07/31 05:50:07;;;;;;;4.88;2.92;;;;;;;17.07;100.00;100684.91;5048441;28;20057;-72
2023/07/31 05:52:32;;;;;;;6.70;3.00;;;;;;;17.10;100.00;100682.03;5047754;28;20075;-73
2023/07/31 05:54:57;;;;;;;5.05;3.10;;;;;;;17.25;100.00;100685.50;5048155;28;20024;-74
2023/07/31 05:57:23;;;;;;;6.10;2.85;;;;;;;17.33;100.00;100678.84;5045548;28;20454;-71
2023/07/31 05:59:48;;;;;;;6.43;2.58;;;;;;;17.31;100.00;100668.31;5048506;28;20707;-77
2023/07/31 06:02:13;;;;;;;5.47;2.90;;;;;;;17.41;100.00;100674.72;5048864;28;20389;-72
2023/07/31 06:04:39;;;;;;;4.63;2.75;;;;;;;17.56;100.00;100674.66;5049333;28;20029;-71
2023/07/31 06:07:04;;;;;;;6.57;2.38;;;;;;;17.42;100.00;100684.41;5048570;28;20481;-78
2023/07/31 06:09:30;;;;;;;5.28;2.28;;;;;;;17.30;100.00;100675.41;5048451;28;20533;-76
2023/07/31 06:11:55;;;;;;;7.88;2.97;;;;;;;17.46;100.00;100678.88;5046762;28;20516;-69
2023/07/31 06:14:20;;;;;;;5.72;3.03;;;;;;;17.45;100.00;100678.03;5047517;28;20044;-79
2023/07/31 06:16:46;;;;;;;5.22;2.47;;;;;;;17.48;100.00;100667.16;5048742;28;20040;-75
2023/07/31 06:19:11;;;;;;;5.28;2.67;;;;;;;17.41;100.00;100672.06;5036239;28;20052;-75
2023/07/31 06:21:37;;;;;;;5.07;2.38;;;;;;;17.46;100.00;100668.25;5048169;28;20079;-73
2023/07/31 06:24:03;;;;;;;7.18;2.78;;;;;;;17.51;100.00;100666.09;5030411;28;20045;-75
2023/07/31 06:26:29;;;;;;;6.88;2.70;;;;;;;17.53;100.00;100658.88;5033905;28;20025;-76
2023/07/31 06:28:54;;;;;;;3.55;2.15;;;;;;;17.65;100.00;100657.22;5032814;28;20143;-71
2023/07/31 06:31:22;;;;;;;5.53;2.90;;;;;;;17.72;100.00;100658.50;5044573;28;20040;-79
2023/07/31 06:33:51;;;;;;;4.97;2.27;;;;;;;17.78;100.00;100666.09;5047549;28;20644;-74
2023/07/31 06:36:16;;;;;;;3.35;1.80;;;;;;;17.78;100.00;100651.91;5047959;28;20759;-78
2023/07/31 06:38:41;;;;;;;3.88;1.95;;;;;;;17.77;100.00;100653.72;5047878;28;20033;-69
2023/07/31 06:41:07;;;;;;;3.00;1.80;;;;;;;17.92;100.00;100654.50;5046458;28;20024;-71
2023/07/31 06:43:32;;;;;;;2.20;2.00;;;;;;;17.79;100.00;100650.97;5047895;28;20804;-73
2023/07/31 06:46:00;;;;;;;3.50;2.00;;;;;;;17.82;100.00;100642.72;5048165;28;20024;-72
2023/07/31 06:48:25;;;;;;;4.65;1.92;;;;;;;17.80;100.00;100637.53;5040605;28;20104;-74
2023/07/31 06:50:50;;;;;;;5.75;2.15;;;;;;;17.78;100.00;100635.91;5028189;28;20121;-74
2023/07/31 06:53:15;;;;;;;2.38;1.48;;;;;;;17.75;100.00;100633.44;5033101;28;20064;-72
2023/07/31 06:55:41;;;;;;;1.92;1.40;;;;;;;17.78;100.00;100641.25;5045652;28;20136;-74
2023/07/31 06:58:06;;;;;;;3.05;1.60;;;;;;;17.83;100.00;100639.13;5048125;28;20496;-76
2023/07/31 07:00:32;;;;;;;3.55;1.70;;;;;;;17.87;100.00;100647.75;5029723;28;20041;-73
2023/07/31 07:02:57;;;;;;;3.28;1.58;;;;;;;17.79;100.00;100637.63;5026802;28;20449;-69
2023/07/31 07:05:22;;;;;;;3.65;1.65;;;;;;;17.80;100.00;100634.88;5027169;28;20453;-71
2023/07/31 07:07:50;;;;;;;3.33;1.60;;;;;;;17.88;100.00;100642.31;5028813;28;20112;-80
2023/07/31 07:10:15;;;;;;;1.58;1.30;;;;;;;17.93;100.00;100637.53;5025085;28;20391;-75
2023/07/31 07:12:40;;;;;;;2.72;1.33;;;;;;;18.06;100.00;100636.69;5028181;28;20060;-73
2023/07/31 07:15:06;;;;;;;2.13;1.48;;;;;;;17.97;100.00;100643.50;5027766;28;20032;-77
2023/07/31 07:17:31;;;;;;;1.90;1.20;;;;;;;17.98;100.00;100636.38;5028121;28;20022;-75
2023/07/31 07:19:57;;;;;;;1.33;1.23;;;;;;;18.05;100.00;100635.84;5028183;28;20025;-73
2023/07/31 07:22:23;;;;;;;2.33;1.30;;;;;;;18.13;100.00;100630.03;5045102;28;20028;-69
2023/07/31 07:24:48;;;;;;;1.98;1.35;;;;;;;18.15;100.00;100621.91;5048256;28;20029;-69
2023/07/31 07:27:14;;;;;;;2.15;1.10;;;;;;;18.14;100.00;100639.72;5047566;28;20029;-75
2023/07/31 07:29:40;;;;;;;1.23;1.23;;;;;;;18.17;100.00;100636.84;5047166;28;20039;-72
2023/07/31 07:32:05;;;;;;;2.42;1.05;;;;;;;18.08;100.00;100640.09;5047777;28;20033;-71
2023/07/31 07:34:31;;;;;;;2.45;1.15;;;;;;;18.09;100.00;100644.47;5048304;28;20029;-74
2023/07/31 07:36:56;;;;;;;1.35;1.10;;;;;;;18.18;100.00;100633.19;5048670;28;20033;-76
2023/07/31 07:39:21;;;;;;;1.85;1.15;;;;;;;18.34;100.00;100636.63;5047809;28;20037;-73
2023/07/31 07:41:47;;;;;;;1.13;1.02;;;;;;;18.33;100.00;100641.09;5046792;28;20032;-78
2023/07/31 07:44:13;;;;;;;1.40;0.90;;;;;;;18.35;100.00;100643.66;5047379;28;20041;-75
2023/07/31 07:46:38;;;;;;;1.85;1.00;;;;;;;18.29;100.00;100642.25;5045978;28;20029;-70
2023/07/31 07:49:04;;;;;;;1.38;1.13;;;;;;;18.41;100.00;100637.88;5047445;28;20029;-75
2023/07/31 07:51:31;;;;;;;1.10;1.00;;;;;;;18.43;100.00;100635.97;5031941;28;20029;-77
2023/07/31 07:53:56;;;;;;;1.17;0.95;;;;;;;18.70;100.00;100626.97;5027361;28;20060;-77
2023/07/31 07:56:23;;;;;;;1.23;0.95;;;;;;;18.72;100.00;100630.34;5039379;28;20148;-71
2023/07/31 07:58:50;;;;;;;0.85;0.70;;;;;;;18.82;100.00;100627.88;5047448;28;20036;-72
2023/07/31 08:01:15;;;;;;;0.98;0.82;;;;;;;18.90;100.00;100628.19;5045590;28;20133;-72
2023/07/31 08:03:41;;;;;;;1.20;0.90;;;;;;;19.08;100.00;100614.47;5046422;28;20535;-74
2023/07/31 08:06:08;;;;;;;1.95;0.85;;;;;;;19.08;100.00;100619.81;5046324;28;20108;-70
2023/07/31 08:08:33;;;;;;;0.68;0.68;;;;;;;19.12;100.00;100623.13;5045760;28;20127;-74
2023/07/31 08:10:58;;;;;;;0.52;0.52;;;;;;;19.08;100.00;100611.78;5046178;28;20108;-72
2023/07/31 08:13:23;;;;;;;1.00;0.70;;;;;;;19.13;100.00;100617.66;5042903;28;20117;-71
2023/07/31 08:15:49;;;;;;;1.13;0.60;;;;;;;19.13;100.00;100606.13;5047591;28;20048;-73
2023/07/31 08:18:15;;;;;;;2.47;0.73;;;;;;;18.75;100.00;100615.97;5046059;28;20045;-74
2023/07/31 08:20:40;;;;;;;0.88;0.88;;;;;;;18.82;100.00;100620.72;5046589;28;20033;-71
2023/07/31 08:23:06;;;;;;;0.77;0.57;;;;;;;18.68;100.00;100618.19;5047698;28;20013;-69
2023/07/31 08:25:34;;;;;;;0.70;0.70;;;;;;;18.61;100.00;100611.59;5049765;28;20559;-72
2023/07/31 08:28:00;;;;;;;0.60;0.60;;;;;;;18.57;100.00;100616.28;5050666;28;20048;-72
2023/07/31 08:30:25;;;;;;;0.80;0.52;;;;;;;18.51;100.00;100616.75;5050509;28;20449;-68
2023/07/31 08:32:50;;;;;;;0.40;0.40;;;;;;;18.49;100.00;100614.19;5050424;28;20033;-71
2023/07/31 08:35:16;;;;;;;0.47;0.43;;;;;;;18.56;100.00;100619.94;5050593;28;20029;-78
2023/07/31 08:37:41;;;;;;;0.77;0.68;;;;;;;18.41;100.00;100604.06;5050080;28;20025;-71
2023/07/31 08:40:07;;;;;;;1.13;0.80;;;;;;;18.52;100.00;100615.78;5049341;28;20028;-67
2023/07/31 08:42:32;;;;;;;0.85;0.77;;;;;;;18.58;100.00;100603.81;5031623;28;20048;-71
2023/07/31 08:44:59;;;;;;;1.42;0.73;;;;;;;18.75;100.00;100598.09;5050231;28;20029;-71
2023/07/31 08:47:25;;;;;;;1.65;0.70;;;;;;;18.82;100.00;100603.88;5049031;28;20095;-67
2023/07/31 08:49:51;;;;;;;0.60;0.60;;;;;;;18.89;100.00;100612.25;5049454;28;20029;-73
2023/07/31 08:52:16;;;;;;;0.70;0.70;;;;;;;18.82;100.00;100607.38;5048278;28;20021;-69
2023/07/31 08:54:42;;;;;;;2.38;0.60;;;;;;;18.90;100.00;100606.81;5049834;28;20033;-72
2023/07/31 08:57:08;;;;;;;0.73;0.63;;;;;;;18.93;100.00;100617.28;5046051;28;20108;-69
2023/07/31 08:59:35;;;;;;;0.95;0.85;;;;;;;18.86;100.00;100607.16;5047883;28;20029;-68
2023/07/31 09:02:05;;;;;;;0.65;0.60;;;;;;;18.81;100.00;100615.50;5037962;28;20028;-69
2023/07/31 09:04:31;;;;;;;3.25;1.13;;;;;;;18.78;100.00;100613.06;5048443;28;20037;-70
2023/07/31 09:07:00;;;;;;;1.50;1.20;;;;;;;18.94;100.00;100612.78;5048078;28;20320;-69
2023/07/31 09:09:26;;;;;;;7.00;1.33;;;;;;;19.08;100.00;100611.78;5036625;28;20432;-70
2023/07/31 09:11:52;;;;;;;4.88;1.60;;;;;;;19.04;100.00;100615.63;5042203;28;20017;-72
2023/07/31 09:14:18;;;;;;;4.38;1.85;;;;;;;18.97;100.00;100601.03;5036067;28;20017;-70
2023/07/31 09:16:58;;;;;;;7.68;1.60;;;;;;;18.97;100.00;100601.03;5038131;28;20048;-72
2023/07/31 09:19:33;;;;;;;10.70;2.28;;;;;;;18.88;100.00;100598.09;5039805;28;20032;-70
2023/07/31 09:21:59;;;;;;;6.60;2.25;;;;;;;18.91;100.00;100603.19;5035806;28;20397;-70
2023/07/31 09:24:32;;;;;;;12.27;2.28;;;;;;;18.94;100.00;100602.13;5036190;28;20022;-69
2023/07/31 09:26:58;;;;;;;11.88;1.98;;;;;;;19.08;100.00;100597.63;5032201;28;20054;-73
2023/07/31 09:29:24;;;;;;;7.15;2.20;;;;;;;19.16;100.00;100598.75;5037269;28;20138;-74
2023/07/31 09:31:50;;;;;;;8.35;2.45;;;;;;;19.30;100.00;100599.53;5040916;28;20381;-69
2023/07/31 09:34:15;;;;;;;3.42;1.80;;;;;;;19.27;100.00;100595.25;5032124;28;20128;-73
2023/07/31 09:36:46;;;;;;;6.28;2.20;;;;;;;19.35;100.00;100604.53;5042788;28;20057;-70
2023/07/31 09:39:13;;;;;;;3.78;2.13;;;;;;;19.32;100.00;100605.59;5045489;28;20029;-69
2023/07/31 09:41:54;;;;;;;5.78;2.05;;;;;;;19.27;100.00;100607.78;5036302;28;20389;-71
2023/07/31 09:44:19;;;;;;;3.03;1.40;;;;;;;19.27;100.00;100597.09;5045659;28;20032;-69
2023/07/31 09:46:45;;;;;;;3.00;1.55;;;;;;;19.36;100.00;100591.06;5041920;28;20020;-68
2023/07/31 09:49:12;;;;;;;3.03;1.58;;;;;;;19.23;100.00;100584.94;5040272;28;20021;-69
2023/07/31 09:51:38;;;;;;;2.72;1.50;;;;;;;19.30;100.00;100587.00;5035493;28;20033;-70
2023/07/31 09:54:10;;;;;;;4.50;1.60;;;;;;;19.34;100.00;100593.00;5036058;28;20151;-69
2023/07/31 09:56:36;;;;;;;5.32;1.65;;;;;;;19.43;100.00;100586.97;5042120;28;20017;-69
2023/07/31 09:59:04;;;;;;;2.55;1.40;;;;;;;19.38;100.00;100589.09;5040472;28;20028;-70
2023/07/31 10:01:29;;;;;;;4.20;1.58;;;;;;;19.30;100.00;100592.34;5035951;28;20021;-72
2023/07/31 10:03:55;;;;;;;4.22;1.70;;;;;;;19.36;100.00;100596.41;5038439;28;20036;-67
2023/07/31 10:06:22;;;;;;;5.25;1.52;;;;;;;19.31;100.00;100599.41;5031084;28;20017;-69
2023/07/31 10:08:51;;;;;;;4.03;1.33;;;;;;;19.53;100.00;100586.22;5034406;28;20041;-69
2023/07/31 10:11:17;;;;;;;3.08;1.42;;;;;;;19.77;100.00;100582.66;5035717;28;20067;-70
2023/07/31 10:13:42;;;;;;;3.22;1.30;;;;;;;20.09;100.00;100611.41;5037152;28;20102;-65
2023/07/31 10:16:08;;;;;;;2.83;1.17;;;;;;;20.38;100.00;100599.41;5035061;28;20024;-66
2023/07/31 10:18:35;;;;;;;3.38;1.50;;;;;;;20.48;100.00;100615.56;5033559;28;20096;-71
2023/07/31 10:21:01;;;;;;;4.00;1.80;;;;;;;20.64;100.00;100596.44;5042966;28;20021;-67
2023/07/31 10:23:27;;;;;;;3.53;1.58;;;;;;;20.69;100.00;100594.25;5033871;28;20017;-70
2023/07/31 10:25:54;;;;;;;4.05;1.65;;;;;;;20.52;100.00;100603.63;5034197;28;20170;-66
2023/07/31 10:28:20;;;;;;;4.82;1.70;;;;;;;20.25;100.00;100602.19;5041738;28;20029;-69
2023/07/31 10:30:46;;;;;;;4.53;1.60;;;;;;;20.11;100.00;100596.13;5035562;28;20107;-67
2023/07/31 10:33:11;;;;;;;6.88;1.83;;;;;;;20.19;100.00;100604.38;5035034;28;20107;-73
2023/07/31 10:35:36;;;;;;;6.57;2.08;;;;;;;20.17;100.00;100598.28;5036643;28;20025;-69
2023/07/31 10:38:12;;;;;;;9.70;1.95;;;;;;;20.19;100.00;100596.34;5038534;28;20013;-72
2023/07/31 10:40:38;;;;;;;5.68;2.13;;;;;;;19.95;100.00;100593.75;5038091;28;20029;-72
2023/07/31 10:43:03;;;;;;;9.48;2.28;;;;;;;20.03;100.00;100593.19;5036578;28;20377;-70
2023/07/31 10:45:37;;;;;;;10.30;2.70;;;;;;;20.16;100.00;100593.91;5032703;28;20163;-66
2023/07/31 10:48:04;;;;;;;11.07;2.78;;;;;;;20.04;100.00;100590.38;5040776;28;20029;-67
2023/07/31 10:50:34;;;;;;;10.27;2.50;;;;;;;20.09;100.00;100592.69;5036319;28;20029;-67
2023/07/31 10:53:01;;;;;;;9.80;2.33;;;;;;;20.22;100.00;100597.94;5032886;28;21156;-66
2023/07/31 10:55:33;;;;;;;10.02;2.40;;;;;;;20.24;100.00;100595.13;5041238;28;20077;-69
2023/07/31 10:58:08;;;;;;;10.35;2.45;;;;;;;20.18;100.00;100592.00;5029733;28;20028;-62
2023/07/31 11:00:37;;;;;;;7.18;2.45;;;;;;;20.33;100.00;100586.38;5040823;28;20040;-69
2023/07/31 11:03:11;;;;;;;11.55;2.42;;;;;;;20.27;100.00;100585.06;5039732;28;20321;-69
2023/07/31 11:05:50;;;;;;;13.98;2.72;;;;;;;20.05;100.00;100580.56;5044862;28;20548;-66
2023/07/31 11:08:25;;;;;;;;;;;;;;;20.16;100.00;100571.66;5040007;28;20028;-72
2023/07/31 11:11:02;;;;;;;10.50;2.78;;;;;;;20.26;100.00;100579.81;5045843;28;19970;-69
2023/07/31 11:13:31;;;;;;;6.57;2.55;;;;;;;20.35;100.00;100576.41;5044916;28;20059;-68